Time;durP1;ratioP1;P1;durP2;ratioP2;P2;SDS_P1;SDS_P2;PMS_P1;PMS_P2;Temp;Humidity;BMP_temperature;BMP_pressure;BME280_temperature;BME280_humidity;BME280_pressure;Samples;Min_cycle;Max_cycle;Signal;HPM_P1;HPM_P2
2021/07/07 00:01:29;;;;;;;17.87;16.07;;;;;;;20.65;71.01;98674.83;124774;1093;64271;-77
2021/07/07 00:03:55;;;;;;;17.53;15.73;;;;;;;20.63;71.17;98676.03;124811;1091;64309;-78
2021/07/07 00:06:22;;;;;;;17.97;16.23;;;;;;;20.60;70.83;98663.68;124796;1093;64332;-80
2021/07/07 00:08:48;;;;;;;17.83;16.20;;;;;;;20.56;71.10;98668.61;124881;1093;64319;-78
2021/07/07 00:11:15;;;;;;;20.80;18.80;;;;;;;20.53;71.36;98663.48;124851;1093;64276;-78
2021/07/07 00:13:41;;;;;;;19.17;17.10;;;;;;;20.53;71.60;98668.06;124851;1093;64268;-78
2021/07/07 00:16:08;;;;;;;20.80;18.70;;;;;;;20.50;71.68;98673.83;124880;1091;64422;-78
2021/07/07 00:18:35;;;;;;;20.77;18.97;;;;;;;20.49;71.83;98673.00;124841;1093;64276;-78
2021/07/07 00:21:02;;;;;;;20.37;18.37;;;;;;;20.47;72.38;98669.61;124820;1093;64284;-78
2021/07/07 00:23:30;;;;;;;20.13;18.20;;;;;;;20.45;72.38;98666.23;124794;1093;64202;-78
2021/07/07 00:25:57;;;;;;;21.93;19.77;;;;;;;20.43;72.37;98665.55;124825;1093;64287;-78
2021/07/07 00:28:24;;;;;;;20.83;18.80;;;;;;;20.45;72.72;98668.93;124835;1093;64374;-78
2021/07/07 00:30:54;;;;;;;18.60;17.00;;;;;;;20.44;73.11;98664.55;124827;1093;64443;-78
2021/07/07 00:33:21;;;;;;;;;;;;;;;20.43;73.42;98672.83;124954;1093;64287;-78
2021/07/07 00:35:48;;;;;;;20.27;18.20;;;;;;;20.42;73.78;98668.45;124877;1092;64731;-78
2021/07/07 00:38:15;;;;;;;18.90;17.20;;;;;;;20.39;73.53;98666.93;124872;1093;64297;-78
2021/07/07 00:40:43;;;;;;;19.37;17.63;;;;;;;20.37;73.74;98671.66;124830;1093;64365;-78
2021/07/07 00:43:10;;;;;;;18.43;16.67;;;;;;;20.36;73.59;98672.70;124837;1093;64213;-78
2021/07/07 00:45:37;;;;;;;18.77;16.97;;;;;;;20.37;74.04;98677.08;124833;1093;64309;-78
2021/07/07 00:48:04;;;;;;;18.17;16.27;;;;;;;20.36;74.23;98664.58;124665;1093;64249;-78
2021/07/07 00:50:30;;;;;;;18.33;16.53;;;;;;;20.34;74.13;98675.56;124773;1093;64240;-78
2021/07/07 00:52:57;;;;;;;18.97;17.20;;;;;;;20.32;74.37;98674.05;124768;1093;64845;-79
2021/07/07 00:55:24;;;;;;;19.00;17.37;;;;;;;20.32;74.19;98674.05;124801;1092;64315;-78
2021/07/07 00:57:52;;;;;;;19.20;17.40;;;;;;;20.31;74.61;98677.78;124686;1093;64306;-79
2021/07/07 01:00:21;;;;;;;21.00;19.00;;;;;;;20.25;74.61;98673.91;124836;1093;64279;-78
2021/07/07 01:02:52;;;;;;;21.10;19.20;;;;;;;20.22;74.29;98671.55;124902;1093;64210;-79
2021/07/07 01:05:19;;;;;;;18.67;16.87;;;;;;;20.17;74.60;98672.06;124841;1093;64418;-78
2021/07/07 01:07:45;;;;;;;19.90;18.00;;;;;;;20.11;74.79;98675.43;124829;1091;64220;-78
2021/07/07 01:10:14;;;;;;;18.40;16.80;;;;;;;20.06;74.85;98675.09;124756;1093;64280;-78
2021/07/07 01:12:42;;;;;;;19.50;17.80;;;;;;;20.01;75.04;98674.80;124846;1093;64268;-79
2021/07/07 01:15:11;;;;;;;19.33;17.50;;;;;;;19.98;74.54;98677.81;124877;1093;64271;-78
2021/07/07 01:17:38;;;;;;;;;;;;;;;19.87;75.35;98672.77;124958;1093;64666;-79
2021/07/07 01:20:14;;;;;;;20.37;18.40;;;;;;;19.80;75.43;98672.61;125234;1093;64479;-79
2021/07/07 01:22:42;;;;;;;20.97;18.97;;;;;;;19.76;75.78;98676.66;125239;1093;64243;-79
2021/07/07 01:25:11;;;;;;;19.83;18.03;;;;;;;19.72;75.93;98676.16;125254;1093;64284;-79
2021/07/07 01:27:40;;;;;;;19.20;17.37;;;;;;;19.70;75.73;98671.93;125212;1093;64610;-81
2021/07/07 01:30:09;;;;;;;19.37;17.77;;;;;;;19.66;76.11;98678.64;124834;1093;64296;-79
2021/07/07 01:32:36;;;;;;;20.98;18.98;;;;;;;19.57;76.38;98675.09;124796;1093;64287;-79
2021/07/07 01:35:06;;;;;;;21.50;19.40;;;;;;;19.51;76.53;98673.08;124736;1093;64284;-79
2021/07/07 01:37:33;;;;;;;21.63;19.47;;;;;;;19.50;76.76;98672.20;124817;1093;64287;-79
2021/07/07 01:39:59;;;;;;;20.13;18.43;;;;;;;19.49;76.87;98664.28;124783;1092;64274;-77
2021/07/07 01:42:26;;;;;;;19.20;17.50;;;;;;;19.51;77.26;98679.33;124757;1093;64314;-78
2021/07/07 01:44:52;;;;;;;20.63;18.47;;;;;;;19.47;76.87;98672.55;124663;1093;64270;-78
2021/07/07 01:47:19;;;;;;;18.70;17.03;;;;;;;19.47;77.51;98672.55;124766;1092;64367;-77
2021/07/07 01:49:47;;;;;;;19.60;17.60;;;;;;;19.45;77.42;98671.86;124690;1093;64328;-79
2021/07/07 01:52:13;;;;;;;21.40;19.43;;;;;;;19.45;77.34;98674.56;124803;1093;64269;-78
2021/07/07 01:54:40;;;;;;;20.53;18.63;;;;;;;19.43;77.53;98673.91;124778;1093;64434;-79
2021/07/07 01:57:06;;;;;;;21.40;19.57;;;;;;;19.41;77.60;98672.39;124800;1093;64497;-79
2021/07/07 01:59:33;;;;;;;20.87;18.87;;;;;;;19.37;77.68;98671.86;124676;1093;64274;-78
2021/07/07 02:02:00;;;;;;;20.43;18.63;;;;;;;19.35;77.98;98673.03;124782;1093;64290;-78
2021/07/07 02:04:27;;;;;;;20.60;18.63;;;;;;;19.29;77.96;98671.84;124832;1093;64309;-78
2021/07/07 02:06:53;;;;;;;19.77;17.87;;;;;;;19.28;77.82;98671.01;124762;1093;64271;-79
2021/07/07 02:09:20;;;;;;;19.40;17.45;;;;;;;19.27;78.00;98671.16;124802;1093;64328;-79
2021/07/07 02:11:47;;;;;;;19.97;17.97;;;;;;;19.26;77.93;98675.72;124774;1093;64275;-78
2021/07/07 02:14:16;;;;;;;19.95;18.00;;;;;;;19.23;78.34;98675.22;124786;1093;64364;-78
2021/07/07 02:16:44;;;;;;;19.47;17.57;;;;;;;19.20;78.29;98679.09;124768;1093;64245;-78
2021/07/07 02:19:11;;;;;;;19.20;17.37;;;;;;;19.19;78.41;98679.25;124835;1093;64297;-77
2021/07/07 02:21:38;;;;;;;20.53;18.33;;;;;;;19.18;78.58;98677.58;124842;1093;64335;-77
2021/07/07 02:24:06;;;;;;;19.93;18.10;;;;;;;19.21;78.46;98682.64;124797;1093;64271;-79
2021/07/07 02:26:34;;;;;;;19.33;17.43;;;;;;;19.18;78.18;98681.11;124802;1093;64290;-78
2021/07/07 02:29:01;;;;;;;21.87;19.60;;;;;;;19.14;78.06;98681.60;124815;1093;64306;-78
2021/07/07 02:31:27;;;;;;;21.17;19.20;;;;;;;19.15;78.60;98675.20;124787;1091;64271;-78
2021/07/07 02:33:54;;;;;;;21.15;18.95;;;;;;;19.13;78.32;98680.77;124784;1093;64412;-78
2021/07/07 02:36:21;;;;;;;20.57;18.37;;;;;;;19.11;78.34;98681.94;124798;1092;64229;-78
2021/07/07 02:38:47;;;;;;;20.07;18.13;;;;;;;19.09;78.59;98687.52;124792;1093;64293;-78
2021/07/07 02:41:14;;;;;;;19.13;17.43;;;;;;;19.06;78.16;98688.70;124783;1093;64274;-78
2021/07/07 02:43:40;;;;;;;19.80;18.00;;;;;;;19.05;78.23;98692.39;124790;1092;64293;-79
2021/07/07 02:46:08;;;;;;;19.33;17.63;;;;;;;19.03;78.30;98697.09;124782;1093;64435;-79
2021/07/07 02:48:34;;;;;;;19.63;17.70;;;;;;;19.08;78.89;98696.62;124786;1093;64271;-78
2021/07/07 02:51:01;;;;;;;19.23;17.43;;;;;;;19.12;78.59;98702.55;124775;1093;64293;-79
2021/07/07 02:53:27;;;;;;;18.47;16.80;;;;;;;19.15;78.32;98699.52;124791;1093;64322;-79
2021/07/07 02:55:54;;;;;;;19.07;17.33;;;;;;;19.15;78.44;98694.12;124799;1093;64661;-78
2021/07/07 02:58:20;;;;;;;19.67;16.73;;;;;;;19.16;78.39;98703.91;124801;1093;64329;-79
2021/07/07 03:00:49;;;;;;;18.80;16.77;;;;;;;19.18;78.50;98707.29;124840;1093;64296;-77
2021/07/07 03:03:21;;;;;;;19.70;17.60;;;;;;;19.21;78.39;98705.09;124815;1093;64272;-77
2021/07/07 03:05:50;;;;;;;18.97;17.13;;;;;;;19.24;78.49;98710.16;124830;1092;64220;-78
2021/07/07 03:08:18;;;;;;;18.97;17.40;;;;;;;19.29;78.52;98709.67;124788;1093;64284;-78
2021/07/07 03:10:46;;;;;;;19.63;17.63;;;;;;;19.30;78.18;98712.22;124766;1093;64463;-77
2021/07/07 03:13:14;;;;;;;19.85;18.00;;;;;;;19.30;78.16;98714.92;124788;1093;64271;-78
2021/07/07 03:15:41;;;;;;;18.70;16.80;;;;;;;19.33;78.24;98721.02;124810;1093;64284;-77
2021/07/07 03:18:09;;;;;;;19.67;17.80;;;;;;;19.35;78.13;98716.27;124656;1093;64245;-78
2021/07/07 03:20:37;;;;;;;19.93;17.93;;;;;;;19.41;78.56;98719.17;124769;1093;64248;-77
2021/07/07 03:23:05;;;;;;;19.20;17.20;;;;;;;19.48;78.36;98720.20;124804;1093;64327;-77
2021/07/07 03:25:33;;;;;;;17.97;16.30;;;;;;;19.52;78.01;98716.14;124834;1093;64316;-78
2021/07/07 03:28:00;;;;;;;18.17;16.40;;;;;;;19.57;78.30;98721.05;124780;1093;64386;-78
2021/07/07 03:30:27;;;;;;;18.70;16.90;;;;;;;20.07;77.87;98711.14;124761;1093;64381;-78
2021/07/07 03:32:58;;;;;;;17.53;16.00;;;;;;;21.07;76.28;98711.56;124779;1093;64341;-78
2021/07/07 03:35:25;;;;;;;17.87;16.13;;;;;;;21.83;74.92;98709.92;124813;1092;64782;-78
2021/07/07 03:37:52;;;;;;;17.60;15.93;;;;;;;22.56;73.38;98711.14;124775;1093;64251;-78
2021/07/07 03:40:19;;;;;;;16.77;15.30;;;;;;;23.31;71.74;98714.66;124728;1093;64327;-78
2021/07/07 03:42:47;;;;;;;17.15;15.60;;;;;;;23.92;70.26;98705.27;124800;1091;64284;-78
2021/07/07 03:45:18;;;;;;;16.13;14.73;;;;;;;24.50;68.98;98709.52;124764;1093;64359;-78
2021/07/07 03:47:45;;;;;;;16.03;14.63;;;;;;;25.07;67.38;98698.53;124782;1093;64408;-78
2021/07/07 03:50:12;;;;;;;15.20;14.00;;;;;;;25.65;66.19;98703.57;124771;1092;64287;-78
2021/07/07 03:52:39;;;;;;;15.67;14.23;;;;;;;26.16;64.87;98706.58;124634;1093;64338;-78
2021/07/07 03:55:17;;;;;;;15.10;13.80;;;;;;;26.55;63.79;98706.80;124774;1093;64284;-78
2021/07/07 03:57:44;;;;;;;15.67;14.37;;;;;;;26.99;62.51;98717.00;124696;1093;64257;-78
2021/07/07 04:00:19;;;;;;;15.45;13.95;;;;;;;27.50;61.42;98713.42;124810;1093;64411;-78
2021/07/07 04:02:45;;;;;;;14.83;13.63;;;;;;;27.94;60.09;98722.67;124736;1093;64329;-78
2021/07/07 04:05:12;;;;;;;15.10;13.90;;;;;;;28.32;59.28;98720.89;124775;1093;64232;-78
2021/07/07 04:07:39;;;;;;;15.03;13.70;;;;;;;28.78;58.18;98719.63;124776;1093;64309;-78
2021/07/07 04:10:08;;;;;;;14.00;12.70;;;;;;;29.10;56.44;98718.45;124779;1093;64357;-78
2021/07/07 04:12:36;;;;;;;14.20;12.97;;;;;;;29.34;55.78;98715.84;124699;1093;64293;-78
2021/07/07 04:15:05;;;;;;;13.70;12.57;;;;;;;29.52;55.22;98718.55;124725;1093;64299;-79
2021/07/07 04:17:32;;;;;;;14.15;12.73;;;;;;;29.69;54.18;98727.00;124836;1093;64244;-78
2021/07/07 04:19:58;;;;;;;14.33;13.03;;;;;;;29.96;53.32;98723.85;124770;1093;64245;-77
2021/07/07 04:22:25;;;;;;;12.87;11.87;;;;;;;30.13;53.37;98724.03;124750;1093;64271;-78
2021/07/07 04:24:52;;;;;;;14.33;13.13;;;;;;;30.40;52.44;98725.28;124784;1093;64405;-78
2021/07/07 04:27:19;;;;;;;13.05;11.95;;;;;;;30.69;52.14;98728.16;124774;1093;64337;-78
2021/07/07 04:29:46;;;;;;;13.90;12.70;;;;;;;30.99;51.50;98725.30;124762;1093;64206;-79
2021/07/07 04:32:12;;;;;;;14.33;13.23;;;;;;;31.39;50.55;98732.77;124796;1093;64271;-79
2021/07/07 04:34:39;;;;;;;13.37;12.27;;;;;;;31.52;49.87;98734.41;124778;1092;64194;-79
2021/07/07 04:37:05;;;;;;;12.60;11.47;;;;;;;31.77;48.93;98738.73;124831;1093;64737;-78
2021/07/07 04:39:32;;;;;;;12.07;11.17;;;;;;;31.87;48.04;98739.75;124792;1093;64306;-79
2021/07/07 04:41:59;;;;;;;11.60;10.60;;;;;;;31.99;46.93;98738.88;124807;1093;64722;-78
2021/07/07 04:44:25;;;;;;;11.37;10.37;;;;;;;32.04;46.39;98745.31;124771;1093;64257;-79
2021/07/07 04:46:52;;;;;;;11.37;10.17;;;;;;;32.15;46.07;98743.60;124780;1093;64236;-79
2021/07/07 04:49:19;;;;;;;11.27;10.27;;;;;;;32.29;45.68;98739.42;124797;1093;64331;-79
2021/07/07 04:51:45;;;;;;;9.67;8.87;;;;;;;32.35;44.99;98738.41;124800;1093;64216;-79
2021/07/07 04:54:12;;;;;;;10.73;9.93;;;;;;;32.53;44.65;98742.87;124828;1093;64268;-79
2021/07/07 04:56:38;;;;;;;11.30;10.37;;;;;;;32.63;44.02;98738.61;124796;1093;64278;-79
2021/07/07 04:59:05;;;;;;;11.33;10.17;;;;;;;32.62;44.08;98739.68;124779;1093;64287;-79
2021/07/07 05:01:32;;;;;;;10.23;9.27;;;;;;;32.84;43.56;98732.30;124801;1093;64403;-79
2021/07/07 05:03:58;;;;;;;10.25;9.20;;;;;;;33.03;43.40;98740.31;124693;1093;64357;-79
2021/07/07 05:06:25;;;;;;;10.35;9.35;;;;;;;33.17;42.88;98731.38;124777;1093;64268;-79
2021/07/07 05:08:52;;;;;;;9.77;9.07;;;;;;;33.20;42.59;98730.89;124633;1093;64299;-79
2021/07/07 05:11:18;;;;;;;11.70;10.20;;;;;;;33.31;42.16;98731.86;124777;1093;64290;-79
2021/07/07 05:13:45;;;;;;;10.97;10.07;;;;;;;33.44;42.01;98736.98;124790;1093;64284;-79
2021/07/07 05:16:13;;;;;;;11.23;10.30;;;;;;;33.64;41.71;98736.40;124834;1093;64300;-79
2021/07/07 05:18:40;;;;;;;12.25;9.90;;;;;;;33.59;41.22;98741.88;124767;1093;64389;-79
2021/07/07 05:21:07;;;;;;;11.13;10.23;;;;;;;33.69;41.45;98735.63;124766;1093;64289;-79
2021/07/07 05:23:33;;;;;;;10.60;9.50;;;;;;;33.85;41.11;98742.98;124861;1093;64290;-79
2021/07/07 05:26:02;;;;;;;10.45;9.55;;;;;;;33.93;40.55;98740.85;124917;1093;64337;-79
2021/07/07 05:28:29;;;;;;;10.73;9.80;;;;;;;34.01;40.36;98740.38;124891;1093;64344;-79
2021/07/07 05:31:03;;;;;;;11.27;10.17;;;;;;;33.88;39.94;98739.69;124774;1092;64284;-79
2021/07/07 05:33:35;;;;;;;10.50;9.70;;;;;;;33.73;40.15;98742.32;124664;1093;64804;-78
2021/07/07 05:36:10;;;;;;;10.60;9.70;;;;;;;33.78;39.95;98742.38;124847;1093;64283;-78
2021/07/07 05:38:37;;;;;;;10.90;9.90;;;;;;;33.79;39.31;98746.80;124802;1093;64412;-79
2021/07/07 05:41:04;;;;;;;11.37;10.17;;;;;;;33.73;39.29;98749.75;124737;1093;64268;-78
2021/07/07 05:43:32;;;;;;;11.45;10.35;;;;;;;33.65;39.29;98751.91;124773;1093;64220;-78
2021/07/07 05:45:58;;;;;;;10.53;9.53;;;;;;;33.62;40.18;98743.28;124795;1093;64245;-78
2021/07/07 05:48:28;;;;;;;10.27;9.27;;;;;;;33.70;39.56;98747.52;124772;1093;64210;-78
2021/07/07 05:50:56;;;;;;;10.43;9.40;;;;;;;33.87;39.85;98749.09;124753;1093;64245;-78
2021/07/07 05:53:23;;;;;;;10.20;9.30;;;;;;;33.84;39.58;98752.38;124802;1093;64297;-78
2021/07/07 05:55:51;;;;;;;11.30;9.80;;;;;;;33.86;39.68;98754.88;124674;1093;64312;-78
2021/07/07 05:58:18;;;;;;;11.33;10.20;;;;;;;33.60;39.67;98757.38;124787;1093;64287;-78
2021/07/07 06:00:45;;;;;;;10.47;9.57;;;;;;;33.33;39.59;98754.51;124762;1093;64619;-78
2021/07/07 06:03:11;;;;;;;11.10;10.10;;;;;;;33.29;39.74;98761.66;124803;1093;64290;-79
2021/07/07 06:05:38;;;;;;;9.75;9.05;;;;;;;33.37;39.84;98763.14;124782;1092;64284;-78
2021/07/07 06:08:06;;;;;;;9.63;8.83;;;;;;;33.56;39.57;98755.38;124812;1093;64329;-78
2021/07/07 06:10:32;;;;;;;10.43;9.43;;;;;;;33.65;39.44;98757.44;124850;1093;64254;-78
2021/07/07 06:12:59;;;;;;;9.97;9.07;;;;;;;33.69;39.32;98757.74;124748;1093;64312;-78
2021/07/07 06:15:26;;;;;;;9.90;8.93;;;;;;;33.79;39.81;98757.86;124807;1092;64188;-78
2021/07/07 06:17:53;;;;;;;9.63;8.73;;;;;;;33.81;39.72;98758.44;124783;1093;64317;-78
2021/07/07 06:20:20;;;;;;;10.43;9.20;;;;;;;33.85;39.25;98764.27;124806;1093;64229;-79
2021/07/07 06:22:47;;;;;;;9.90;9.00;;;;;;;33.82;39.33;98770.33;124770;1093;64279;-79
2021/07/07 06:25:15;;;;;;;10.83;9.47;;;;;;;33.84;39.50;98768.97;124789;1093;64280;-78
2021/07/07 06:27:43;;;;;;;11.10;10.20;;;;;;;34.03;40.00;98761.14;124811;1093;64305;-79
2021/07/07 06:30:13;;;;;;;8.70;7.87;;;;;;;34.23;39.38;98757.78;124803;1093;64284;-79
2021/07/07 06:32:42;;;;;;;10.33;9.43;;;;;;;34.17;39.35;98763.52;124780;1093;64283;-80
2021/07/07 06:35:09;;;;;;;9.33;8.53;;;;;;;34.24;39.52;98767.73;124860;1093;64284;-79
2021/07/07 06:37:36;;;;;;;9.77;8.77;;;;;;;34.41;38.93;98772.30;124749;1093;64262;-79
2021/07/07 06:40:04;;;;;;;8.47;7.80;;;;;;;34.44;39.71;98774.53;124817;1093;64284;-79
2021/07/07 06:42:31;;;;;;;8.70;7.80;;;;;;;34.43;38.98;98773.70;124822;1093;64267;-79
2021/07/07 06:44:59;;;;;;;10.60;9.55;;;;;;;34.38;38.72;98767.30;124855;1092;64300;-78
2021/07/07 06:47:26;;;;;;;9.33;8.33;;;;;;;34.45;38.77;98765.15;124774;1093;64268;-78
2021/07/07 06:49:53;;;;;;;8.97;8.07;;;;;;;34.49;38.85;98775.44;124752;1093;64291;-79
2021/07/07 06:52:20;;;;;;;8.17;7.57;;;;;;;34.45;39.10;98765.98;124804;1093;64284;-79
2021/07/07 06:54:47;;;;;;;7.90;7.13;;;;;;;34.46;39.27;98767.64;124782;1093;64264;-79
2021/07/07 06:57:14;;;;;;;8.95;8.05;;;;;;;34.56;39.10;98755.82;124806;1092;64309;-79
2021/07/07 06:59:40;;;;;;;8.67;7.97;;;;;;;34.72;38.50;98763.16;124820;1093;64283;-79
2021/07/07 07:02:09;;;;;;;15.07;7.90;;;;;;;34.68;38.92;98767.58;124816;1093;64268;-79
2021/07/07 07:04:36;;;;;;;8.20;7.60;;;;;;;34.63;38.81;98769.48;124785;1093;64305;-79
2021/07/07 07:07:03;;;;;;;9.10;8.20;;;;;;;34.43;39.17;98768.17;124808;1093;64280;-78
2021/07/07 07:09:29;;;;;;;7.45;6.85;;;;;;;34.38;39.72;98773.66;124819;1092;64239;-78
2021/07/07 07:11:56;;;;;;;8.50;7.80;;;;;;;34.50;38.82;98766.02;124763;1093;64296;-79
2021/07/07 07:14:23;;;;;;;8.17;7.13;;;;;;;34.52;39.24;98766.59;124819;1093;64325;-78
2021/07/07 07:16:50;;;;;;;8.40;7.80;;;;;;;34.48;38.65;98764.62;124819;1092;64395;-78
2021/07/07 07:19:16;;;;;;;8.30;7.60;;;;;;;34.38;38.94;98759.83;124778;1093;64319;-79
2021/07/07 07:21:43;;;;;;;8.17;7.47;;;;;;;34.38;39.04;98765.36;124800;1093;64281;-79
2021/07/07 07:24:13;;;;;;;9.40;8.47;;;;;;;34.31;39.85;98767.53;124783;1093;64324;-79
2021/07/07 07:26:40;;;;;;;7.20;6.50;;;;;;;34.38;39.83;98770.89;124805;1092;64285;-78
2021/07/07 07:29:07;;;;;;;6.90;6.37;;;;;;;34.41;39.15;98770.36;124824;1093;64248;-78
2021/07/07 07:31:34;;;;;;;5.33;4.90;;;;;;;34.39;39.50;98763.42;124793;1093;64284;-78
2021/07/07 07:34:01;;;;;;;5.00;4.63;;;;;;;34.17;39.41;98767.11;124804;1093;64314;-78
2021/07/07 07:36:28;;;;;;;5.03;4.67;;;;;;;33.98;38.98;98765.79;124829;1093;64235;-78
2021/07/07 07:39:00;;;;;;;6.50;4.90;;;;;;;33.85;39.62;98767.03;124673;1094;64336;-78
2021/07/07 07:41:32;;;;;;;4.90;4.60;;;;;;;33.61;39.23;98767.33;124780;1093;64418;-78
2021/07/07 07:43:59;;;;;;;5.20;4.30;;;;;;;33.30;39.64;98768.02;124922;1093;64290;-79
2021/07/07 07:46:28;;;;;;;9.05;4.70;;;;;;;33.08;40.03;98770.77;124855;1093;64229;-78
2021/07/07 07:48:55;;;;;;;4.68;4.38;;;;;;;33.01;39.95;98774.52;124815;1093;64268;-78
2021/07/07 07:51:23;;;;;;;4.83;4.30;;;;;;;32.95;40.39;98778.28;124784;1093;64316;-78
2021/07/07 07:53:50;;;;;;;4.53;4.23;;;;;;;32.90;40.33;98772.68;124800;1093;64401;-78
2021/07/07 07:56:18;;;;;;;7.43;4.93;;;;;;;32.82;40.47;98778.63;124764;1092;64268;-78
2021/07/07 07:58:45;;;;;;;4.80;3.87;;;;;;;32.82;40.04;98780.56;124804;1093;64188;-78
2021/07/07 08:01:13;;;;;;;3.95;3.65;;;;;;;32.83;39.46;98779.47;124789;1093;64315;-78
2021/07/07 08:03:39;;;;;;;4.70;3.93;;;;;;;32.83;39.17;98777.53;124776;1093;64287;-78
2021/07/07 08:06:06;;;;;;;14.57;4.87;;;;;;;32.79;39.79;98779.98;124783;1093;64431;-78
2021/07/07 08:08:33;;;;;;;4.27;3.97;;;;;;;32.70;39.42;98780.64;124785;1093;64310;-77
2021/07/07 08:10:59;;;;;;;3.83;3.57;;;;;;;32.67;39.30;98775.63;124820;1093;64291;-78
2021/07/07 08:13:26;;;;;;;3.60;3.33;;;;;;;32.70;39.40;98783.41;124769;1093;64313;-78
2021/07/07 08:15:53;;;;;;;5.05;4.55;;;;;;;32.80;39.21;98778.05;124781;1093;64824;-78
2021/07/07 08:18:20;;;;;;;4.20;3.80;;;;;;;32.79;38.56;98779.14;124843;1093;64316;-78
2021/07/07 08:20:46;;;;;;;3.90;3.50;;;;;;;32.80;38.60;98789.09;124644;1092;64358;-78
2021/07/07 08:23:13;;;;;;;3.37;3.07;;;;;;;32.76;38.71;98783.25;124834;1093;64284;-78
2021/07/07 08:25:39;;;;;;;3.10;2.90;;;;;;;32.73;37.23;98788.41;124806;1093;64271;-78
2021/07/07 08:28:06;;;;;;;4.03;3.67;;;;;;;32.60;36.67;98788.76;124784;1093;64296;-78
2021/07/07 08:30:33;;;;;;;3.67;3.37;;;;;;;32.44;36.85;98793.16;124692;1093;64727;-78
2021/07/07 08:32:59;;;;;;;3.50;3.07;;;;;;;32.40;36.86;98794.76;124776;1093;64296;-78
2021/07/07 08:35:26;;;;;;;3.57;3.23;;;;;;;32.41;37.49;98794.48;124806;1092;64278;-78
2021/07/07 08:37:53;;;;;;;3.90;3.60;;;;;;;32.52;38.08;98792.80;124793;1093;64287;-78
2021/07/07 08:40:19;;;;;;;3.40;3.10;;;;;;;32.55;37.71;98795.05;124737;1093;64380;-78
2021/07/07 08:42:47;;;;;;;3.60;3.40;;;;;;;32.45;37.01;98787.40;124811;1093;64281;-78
2021/07/07 08:45:16;;;;;;;4.55;3.60;;;;;;;32.47;37.48;98796.30;124790;1092;64277;-79
2021/07/07 08:47:45;;;;;;;3.63;2.93;;;;;;;32.61;37.25;98790.45;124840;1093;64271;-78
2021/07/07 08:50:16;;;;;;;3.30;3.10;;;;;;;32.74;37.42;98784.59;124805;1093;64271;-79
2021/07/07 08:52:44;;;;;;;3.30;3.10;;;;;;;32.73;37.36;98792.03;124747;1093;64290;-78
2021/07/07 08:55:13;;;;;;;3.75;3.45;;;;;;;32.73;36.50;98793.94;124823;1093;64309;-79
2021/07/07 08:57:43;;;;;;;3.30;3.10;;;;;;;32.74;36.13;98793.70;124833;1093;64257;-78
2021/07/07 09:00:12;;;;;;;3.30;3.10;;;;;;;32.85;36.41;98791.92;124863;1093;64278;-78
2021/07/07 09:02:53;;;;;;;3.50;3.20;;;;;;;32.86;36.13;98788.09;124807;1093;64198;-79
2021/07/07 09:05:20;;;;;;;2.95;2.70;;;;;;;32.97;35.80;98792.67;124772;1093;64310;-78
2021/07/07 09:07:47;;;;;;;3.20;2.87;;;;;;;33.05;36.63;98794.20;124859;1093;64294;-79
2021/07/07 09:10:17;;;;;;;3.50;3.20;;;;;;;33.10;36.25;98799.80;124777;1093;64251;-79
2021/07/07 09:12:45;;;;;;;2.70;2.50;;;;;;;33.14;35.95;98798.18;124816;1093;64361;-79
2021/07/07 09:15:15;;;;;;;3.23;2.90;;;;;;;33.18;35.25;98793.00;124837;1093;64241;-79
2021/07/07 09:17:48;;;;;;;3.23;2.80;;;;;;;33.23;35.55;98790.31;124751;1093;64303;-79
2021/07/07 09:20:21;;;;;;;3.10;2.80;;;;;;;33.26;35.70;98794.45;124828;1093;64193;-78
2021/07/07 09:22:49;;;;;;;2.90;2.53;;;;;;;33.14;34.90;98795.42;124825;1093;64763;-78
2021/07/07 09:25:24;;;;;;;5.67;3.10;;;;;;;32.90;35.55;98802.22;124799;1093;64268;-78
2021/07/07 09:27:51;;;;;;;3.10;2.80;;;;;;;32.89;34.92;98800.53;124765;1093;64238;-78
2021/07/07 09:30:18;;;;;;;4.10;2.80;;;;;;;32.92;34.39;98809.16;124762;1093;64287;-78
2021/07/07 09:32:47;;;;;;;3.30;3.10;;;;;;;33.01;34.88;98810.41;124778;1093;64332;-79
2021/07/07 09:35:17;;;;;;;3.20;2.90;;;;;;;33.19;35.54;98809.30;124745;1093;64229;-78
2021/07/07 09:37:54;;;;;;;3.17;2.90;;;;;;;33.32;35.68;98808.09;124837;1093;64265;-79
2021/07/07 09:40:23;;;;;;;3.45;2.95;;;;;;;33.48;35.28;98811.07;124865;1093;64265;-79
2021/07/07 09:42:50;;;;;;;3.18;2.88;;;;;;;33.63;35.39;98806.60;124858;1093;64262;-78
2021/07/07 09:45:24;;;;;;;2.93;2.73;;;;;;;33.73;34.81;98808.66;124792;1093;64268;-79
2021/07/07 09:47:51;;;;;;;3.60;3.20;;;;;;;33.79;34.97;98809.55;124796;1093;64274;-79
2021/07/07 09:50:19;;;;;;;3.10;2.80;;;;;;;33.83;34.57;98808.75;124798;1092;64331;-78
2021/07/07 09:52:45;;;;;;;7.17;3.13;;;;;;;33.92;34.25;98808.32;124828;1093;64294;-78
2021/07/07 09:55:13;;;;;;;3.87;3.57;;;;;;;34.00;33.58;98807.85;124785;1093;64360;-78
2021/07/07 09:57:45;;;;;;;3.90;3.30;;;;;;;33.99;34.11;98803.39;124797;1093;64322;-78
2021/07/07 10:00:14;;;;;;;4.33;2.70;;;;;;;34.07;34.56;98806.59;124793;1093;64753;-78
2021/07/07 10:02:42;;;;;;;3.03;2.83;;;;;;;34.19;34.73;98806.41;124826;1092;64286;-78
2021/07/07 10:05:13;;;;;;;3.50;3.20;;;;;;;34.27;34.20;98799.57;124773;1093;64206;-78
2021/07/07 10:07:42;;;;;;;5.47;3.43;;;;;;;34.17;32.88;98800.30;124777;1093;64258;-78
2021/07/07 10:10:11;;;;;;;3.47;3.20;;;;;;;34.17;33.74;98805.83;124811;1093;64296;-79
2021/07/07 10:12:41;;;;;;;3.33;3.03;;;;;;;34.35;33.57;98801.86;124774;1093;64236;-78
2021/07/07 10:15:09;;;;;;;3.63;2.90;;;;;;;34.46;33.88;98797.25;124805;1093;64188;-78
2021/07/07 10:17:36;;;;;;;3.15;2.95;;;;;;;34.56;33.52;98800.10;124825;1091;64287;-78
2021/07/07 10:20:03;;;;;;;3.57;3.30;;;;;;;34.66;33.19;98800.22;124896;1093;64213;-78
2021/07/07 10:22:30;;;;;;;5.00;3.00;;;;;;;34.67;32.67;98804.64;124819;1093;64290;-78
2021/07/07 10:24:59;;;;;;;3.70;3.40;;;;;;;34.67;32.26;98804.64;124783;1093;64283;-78
2021/07/07 10:27:26;;;;;;;3.45;3.15;;;;;;;34.75;32.81;98806.09;124834;1091;64283;-78
2021/07/07 10:29:52;;;;;;;4.30;3.40;;;;;;;34.73;32.73;98798.07;124813;1093;64210;-78
2021/07/07 10:32:19;;;;;;;2.50;2.40;;;;;;;34.51;33.14;98795.35;124792;1093;64455;-78
2021/07/07 10:34:48;;;;;;;2.77;2.57;;;;;;;34.51;33.52;98802.83;124867;1093;64418;-78
2021/07/07 10:37:22;;;;;;;3.05;2.85;;;;;;;34.61;33.42;98802.95;124827;1093;64309;-78
2021/07/07 10:39:49;;;;;;;2.87;2.67;;;;;;;34.70;32.95;98806.88;124819;1093;64213;-78
2021/07/07 10:42:16;;;;;;;3.37;3.07;;;;;;;34.78;32.89;98802.79;124849;1092;64217;-78
2021/07/07 10:44:47;;;;;;;4.13;2.83;;;;;;;34.74;32.91;98807.20;124826;1093;64180;-78
2021/07/07 10:47:15;;;;;;;3.90;3.50;;;;;;;34.68;31.53;98806.34;124847;1093;64287;-78
2021/07/07 10:49:48;;;;;;;7.17;3.43;;;;;;;34.68;31.96;98802.73;124768;1093;64223;-78
2021/07/07 10:52:19;;;;;;;3.17;2.80;;;;;;;34.77;32.48;98797.53;124773;1093;64213;-78
2021/07/07 10:55:00;;;;;;;4.40;4.00;;;;;;;34.79;31.49;98804.48;124811;1093;64328;-79
2021/07/07 10:57:35;;;;;;;3.13;2.90;;;;;;;34.73;30.59;98800.84;124815;1093;64313;-78
2021/07/07 11:00:21;;;;;;;3.40;3.10;;;;;;;34.64;31.00;98799.64;124791;1093;64322;-78
2021/07/07 11:02:48;;;;;;;3.33;3.03;;;;;;;34.65;31.24;98803.24;124786;1094;64363;-78
2021/07/07 11:05:25;;;;;;;4.17;3.37;;;;;;;34.58;31.53;98797.95;124786;1093;64237;-78
2021/07/07 11:07:51;;;;;;;3.70;3.07;;;;;;;34.54;32.37;98786.52;124788;1093;64284;-78
2021/07/07 11:10:22;;;;;;;6.13;4.00;;;;;;;34.59;32.62;98791.30;124808;1093;64267;-79
2021/07/07 11:12:49;;;;;;;4.53;3.17;;;;;;;34.63;32.44;98789.69;124798;1093;64293;-78
2021/07/07 11:15:18;;;;;;;4.23;2.83;;;;;;;34.47;31.56;98793.41;124766;1093;64284;-78
2021/07/07 11:17:52;;;;;;;4.20;3.45;;;;;;;34.41;31.30;98788.90;124843;1093;64191;-78
2021/07/07 11:20:29;;;;;;;4.50;4.03;;;;;;;34.36;31.66;98786.09;124785;1093;64276;-78